createdAt,value
2018-07-05T00:02:36.845Z,69.30
2018-07-05T00:05:16.940Z,69.40
2018-07-05T00:07:57.154Z,69.20
2018-07-05T00:10:37.434Z,70.20
2018-07-05T00:13:17.492Z,69.60
2018-07-05T00:15:57.620Z,69.80
2018-07-05T00:18:37.669Z,69.90
2018-07-05T00:21:17.749Z,69.70
2018-07-05T00:23:57.803Z,69.50
2018-07-05T00:26:37.784Z,69.60
2018-07-05T00:29:17.877Z,69.80
2018-07-05T00:31:57.927Z,70.20
2018-07-05T00:34:39.004Z,69.70
2018-07-05T00:37:19.111Z,69.70
2018-07-05T00:39:59.342Z,69.80
2018-07-05T00:42:39.680Z,69.90
2018-07-05T00:45:19.753Z,70.00
2018-07-05T00:47:59.712Z,70.30
2018-07-05T00:50:39.728Z,70.50
2018-07-05T00:53:19.665Z,70.60
2018-07-05T00:56:00.108Z,70.80
2018-07-05T00:58:40.433Z,70.90
2018-07-05T01:01:20.452Z,70.70
2018-07-05T01:04:00.606Z,70.90
2018-07-05T01:06:41.441Z,70.80
2018-07-05T01:09:21.429Z,70.80
2018-07-05T01:12:01.480Z,71.10
2018-07-05T01:14:41.592Z,71.10
2018-07-05T01:17:21.741Z,70.90
2018-07-05T01:20:01.871Z,71.20
2018-07-05T01:22:42.004Z,71.00
2018-07-05T01:25:22.184Z,71.00
2018-07-05T01:28:02.339Z,71.40
2018-07-05T01:30:42.364Z,71.40
2018-07-05T01:33:22.412Z,71.50
2018-07-05T01:36:03.488Z,71.60
2018-07-05T01:38:43.540Z,71.70
2018-07-05T01:41:23.650Z,71.60
2018-07-05T01:44:04.292Z,71.60
2018-07-05T01:46:44.830Z,71.70
2018-07-05T01:49:24.965Z,71.90
2018-07-05T01:52:09.160Z,72.40
2018-07-05T01:54:49.413Z,72.50
2018-07-05T01:57:29.572Z,72.40
2018-07-05T02:00:09.648Z,72.60
2018-07-05T02:02:49.990Z,73.20
2018-07-05T02:05:30.037Z,74.20
2018-07-05T02:08:10.120Z,73.40
2018-07-05T02:10:50.930Z,73.60
2018-07-05T02:13:31.049Z,73.90
2018-07-05T02:16:11.172Z,74.00
2018-07-05T02:18:51.278Z,74.00
2018-07-05T02:21:31.469Z,74.30
2018-07-05T02:24:11.636Z,74.20
2018-07-05T02:26:52.018Z,74.10
2018-07-05T02:29:32.150Z,74.00
2018-07-05T02:32:12.169Z,73.70
2018-07-05T02:34:52.142Z,73.10
2018-07-05T02:37:37.574Z,73.20
2018-07-05T02:40:17.716Z,73.10
2018-07-05T02:42:57.950Z,73.20
2018-07-05T02:45:37.970Z,73.30
2018-07-05T02:48:17.944Z,73.60
2018-07-05T02:50:58.475Z,73.90
2018-07-05T02:53:38.556Z,74.10
2018-07-05T02:56:18.649Z,73.90
2018-07-05T02:58:58.569Z,74.20
2018-07-05T03:01:38.721Z,74.30
2018-07-05T03:04:18.876Z,74.00
2018-07-05T03:06:59.049Z,73.90
2018-07-05T03:09:39.084Z,73.60
2018-07-05T03:12:19.344Z,73.40
2018-07-05T03:14:59.359Z,73.60
2018-07-05T03:17:39.468Z,73.50
2018-07-05T03:20:19.367Z,73.30
2018-07-05T03:23:00.037Z,73.10
2018-07-05T03:25:40.286Z,73.00
2018-07-05T03:28:20.401Z,73.00
2018-07-05T03:31:00.550Z,73.10
2018-07-05T03:33:40.601Z,73.20
2018-07-05T03:36:20.626Z,73.20
2018-07-05T03:39:00.676Z,73.30
2018-07-05T03:41:40.844Z,73.10
2018-07-05T03:44:20.992Z,73.60
2018-07-05T03:47:00.916Z,73.70
2018-07-05T03:49:40.812Z,73.90
2018-07-05T03:52:20.964Z,73.70
2018-07-05T03:55:01.068Z,73.90
2018-07-05T03:57:41.257Z,74.10
2018-07-05T04:00:21.208Z,74.40
2018-07-05T04:03:01.190Z,74.70
2018-07-05T04:05:41.200Z,74.60
2018-07-05T04:08:21.374Z,74.60
2018-07-05T04:11:01.610Z,74.70
2018-07-05T04:13:41.662Z,74.60
2018-07-05T04:16:21.749Z,74.60
2018-07-05T04:19:01.901Z,74.90
2018-07-05T04:21:42.234Z,74.80
2018-07-05T04:24:22.312Z,74.80
2018-07-05T04:27:02.929Z,75.30
2018-07-05T04:29:43.032Z,75.20
2018-07-05T04:32:23.156Z,75.50
2018-07-05T04:35:03.435Z,75.70
2018-07-05T04:37:43.660Z,75.30
2018-07-05T04:40:23.873Z,75.00
2018-07-05T04:43:04.180Z,74.70
2018-07-05T04:45:44.342Z,74.60
2018-07-05T04:48:25.368Z,74.00
2018-07-05T04:51:05.417Z,73.70
2018-07-05T04:53:45.545Z,73.40
2018-07-05T04:56:25.786Z,73.10
2018-07-05T04:59:05.757Z,72.90
2018-07-05T05:01:45.832Z,72.80
2018-07-05T05:04:25.895Z,72.60
2018-07-05T05:07:06.119Z,72.40
2018-07-05T05:09:46.108Z,72.30
2018-07-05T05:12:26.285Z,72.20
2018-07-05T05:15:06.534Z,72.00
2018-07-05T05:17:46.668Z,71.90
2018-07-05T05:20:26.901Z,71.80
2018-07-05T05:23:06.928Z,71.70
2018-07-05T05:25:47.191Z,71.60
2018-07-05T05:28:27.362Z,71.60
2018-07-05T05:31:07.566Z,71.50
2018-07-05T05:33:47.511Z,71.40
2018-07-05T05:36:27.650Z,71.30
2018-07-05T05:39:08.022Z,71.30
2018-07-05T05:41:48.154Z,71.20
2018-07-05T05:44:28.323Z,71.20
2018-07-05T05:49:42.364Z,71.20
2018-07-05T05:52:23.327Z,71.10
2018-07-05T05:55:03.523Z,71.00
2018-07-05T05:57:43.869Z,71.00
2018-07-05T06:00:24.034Z,70.90
2018-07-05T06:03:04.643Z,70.80
2018-07-05T06:05:44.702Z,70.90
2018-07-05T06:08:25.196Z,70.80
2018-07-05T06:11:05.455Z,70.70
2018-07-05T06:13:45.745Z,70.70
2018-07-05T06:16:26.082Z,70.60
2018-07-05T06:19:06.040Z,70.60
2018-07-05T06:21:46.272Z,70.70
2018-07-05T06:24:26.291Z,70.60
2018-07-05T06:27:06.490Z,70.60
2018-07-05T06:29:46.555Z,70.60
2018-07-05T06:32:26.815Z,70.50
2018-07-05T06:35:07.256Z,70.50
2018-07-05T06:37:47.362Z,70.40
2018-07-05T06:40:27.504Z,70.40
2018-07-05T06:43:07.990Z,70.30
2018-07-05T06:45:48.092Z,70.40
2018-07-05T06:48:28.248Z,70.40
2018-07-05T06:53:42.340Z,70.30
2018-07-05T06:56:22.528Z,70.30
2018-07-05T06:59:02.635Z,70.30
2018-07-05T07:01:43.848Z,70.20
2018-07-05T07:04:23.915Z,70.20
2018-07-05T07:07:04.169Z,70.20
2018-07-05T07:09:44.247Z,70.20
2018-07-05T07:12:24.335Z,70.20
2018-07-05T07:15:04.660Z,70.10
2018-07-05T07:17:44.840Z,70.10
2018-07-05T07:20:25.063Z,70.10
2018-07-05T07:23:05.171Z,70.00
2018-07-05T07:25:45.357Z,69.90
2018-07-05T07:28:25.494Z,69.90
2018-07-05T07:31:05.599Z,69.80
2018-07-05T07:33:45.732Z,69.90
2018-07-05T07:36:25.962Z,69.90
2018-07-05T07:39:06.380Z,69.80
2018-07-05T07:41:45.484Z,69.70
2018-07-05T07:44:13.258Z,69.70
2018-07-05T07:46:41.002Z,69.70
2018-07-05T07:49:08.708Z,69.60
2018-07-05T07:51:36.532Z,69.60
2018-07-05T07:54:04.278Z,69.60
2018-07-05T07:56:31.992Z,69.60
2018-07-05T07:58:59.835Z,69.60
2018-07-05T08:01:27.628Z,69.50
2018-07-05T08:03:55.343Z,69.50
2018-07-05T08:06:23.004Z,69.50
2018-07-05T08:08:50.708Z,69.30
2018-07-05T08:11:18.683Z,69.40
2018-07-05T08:13:46.419Z,69.30
2018-07-05T08:16:14.197Z,69.30
2018-07-05T08:18:41.939Z,69.20
2018-07-05T08:21:09.723Z,69.20
2018-07-05T08:23:37.453Z,69.10
2018-07-05T08:26:05.160Z,69.20
2018-07-05T08:31:00.999Z,69.70
2018-07-05T08:33:28.741Z,69.20
2018-07-05T08:35:56.440Z,69.20
2018-07-05T08:38:24.142Z,69.10
2018-07-05T08:40:51.929Z,69.10
2018-07-05T08:43:19.693Z,69.00
2018-07-05T08:45:47.381Z,69.10
2018-07-05T08:48:15.078Z,69.00
2018-07-05T08:50:42.867Z,69.10
2018-07-05T08:53:10.567Z,69.10
2018-07-05T08:55:38.278Z,69.10
2018-07-05T08:58:06.020Z,69.10
2018-07-05T09:00:33.755Z,69.00
2018-07-05T09:03:01.698Z,69.00
2018-07-05T09:05:29.421Z,69.00
2018-07-05T09:07:57.140Z,69.10
2018-07-05T09:10:24.880Z,69.00
2018-07-05T09:12:52.669Z,69.00
2018-07-05T09:15:20.429Z,69.00
2018-07-05T09:17:48.309Z,68.40
2018-07-05T09:20:15.891Z,68.90
2018-07-05T09:22:43.708Z,69.00
2018-07-05T09:25:11.440Z,68.90
2018-07-05T09:27:39.160Z,68.80
2018-07-05T09:30:06.896Z,68.80
2018-07-05T09:32:34.682Z,68.80
2018-07-05T09:35:02.537Z,68.70
2018-07-05T09:37:30.347Z,69.00
2018-07-05T09:39:58.106Z,68.70
2018-07-05T09:42:25.779Z,68.60
2018-07-05T09:44:53.518Z,68.50
2018-07-05T09:47:21.268Z,68.50
2018-07-05T09:49:48.954Z,68.50
2018-07-05T09:52:16.759Z,68.40
2018-07-05T09:54:44.483Z,68.40
2018-07-05T09:57:12.241Z,68.40
2018-07-05T09:59:39.948Z,68.40
2018-07-05T10:02:07.844Z,69.20
2018-07-05T10:04:35.648Z,68.40
2018-07-05T10:07:04.257Z,68.40
2018-07-05T10:09:32.000Z,68.30
2018-07-05T10:11:59.841Z,68.30
2018-07-05T10:14:27.604Z,68.30
2018-07-05T10:19:23.434Z,68.40
2018-07-05T10:21:51.305Z,68.40
2018-07-05T10:26:47.014Z,68.50
2018-07-05T10:29:27.195Z,68.60
2018-07-05T10:32:07.211Z,68.40
2018-07-05T10:34:34.956Z,68.40
2018-07-05T10:37:02.717Z,68.50
2018-07-05T10:39:31.618Z,68.50
2018-07-05T10:42:11.845Z,68.30
2018-07-05T10:44:51.879Z,68.30
2018-07-05T10:47:32.240Z,68.30
2018-07-05T10:50:12.451Z,68.30
2018-07-05T10:52:52.719Z,68.40
2018-07-05T10:55:32.745Z,68.30
2018-07-05T10:58:12.944Z,68.30
2018-07-05T11:00:53.070Z,68.30
2018-07-05T11:03:33.160Z,68.40
2018-07-05T11:06:13.117Z,68.40
2018-07-05T11:08:53.308Z,68.30
2018-07-05T11:11:33.537Z,68.40
2018-07-05T11:14:13.933Z,68.40
2018-07-05T11:16:53.941Z,68.40
2018-07-05T11:19:34.146Z,68.40
2018-07-05T11:22:14.411Z,68.40
2018-07-05T11:24:54.560Z,68.40
2018-07-05T11:27:34.548Z,68.30
2018-07-05T11:30:14.646Z,68.30
2018-07-05T11:32:54.892Z,68.30
2018-07-05T11:35:35.140Z,68.20
2018-07-05T11:38:15.388Z,68.30
2018-07-05T11:40:55.598Z,68.20
2018-07-05T11:43:35.691Z,68.30
2018-07-05T11:46:16.072Z,68.30
2018-07-05T11:48:56.485Z,68.30
2018-07-05T11:51:37.612Z,68.30
2018-07-05T11:54:17.968Z,68.20
2018-07-05T11:56:58.202Z,68.30
2018-07-05T11:59:38.262Z,68.20
2018-07-05T12:02:18.619Z,69.10
2018-07-05T12:04:58.611Z,68.30
2018-07-05T12:07:38.841Z,68.30
2018-07-05T12:10:19.053Z,68.30
2018-07-05T12:12:59.184Z,68.30
2018-07-05T12:15:40.308Z,68.30
2018-07-05T12:18:20.379Z,68.30
2018-07-05T12:21:00.697Z,68.20
2018-07-05T12:23:40.777Z,68.30
2018-07-05T12:26:21.350Z,68.30
2018-07-05T12:29:01.421Z,68.30
2018-07-05T12:31:41.557Z,68.20
2018-07-05T12:34:21.727Z,68.10
2018-07-05T12:37:01.850Z,68.20
2018-07-05T12:39:41.848Z,68.10
2018-07-05T12:42:22.238Z,68.00
2018-07-05T12:45:02.385Z,68.00
2018-07-05T12:47:42.552Z,68.10
2018-07-05T12:50:22.541Z,68.00
2018-07-05T12:55:36.795Z,68.00
2018-07-05T12:58:17.337Z,67.90
2018-07-05T13:00:57.320Z,68.00
2018-07-05T13:03:37.942Z,68.00
2018-07-05T13:06:18.440Z,68.00
2018-07-05T13:08:59.032Z,67.90
2018-07-05T13:11:39.424Z,67.80
2018-07-05T13:14:20.055Z,67.80
2018-07-05T13:17:00.372Z,67.70
2018-07-05T13:19:40.682Z,67.70
2018-07-05T13:22:20.989Z,67.60
2018-07-05T13:25:01.272Z,67.60
2018-07-05T13:27:41.755Z,67.60
2018-07-05T13:30:22.357Z,67.60
2018-07-05T13:33:02.572Z,67.60
2018-07-05T13:35:42.897Z,67.50
2018-07-05T13:38:23.049Z,67.60
2018-07-05T13:41:03.104Z,67.60
2018-07-05T13:43:43.208Z,67.50
2018-07-05T13:46:23.399Z,67.60
2018-07-05T13:49:03.568Z,67.60
2018-07-05T13:51:43.728Z,67.60
2018-07-05T13:54:23.725Z,67.70
2018-07-05T13:57:03.889Z,67.80
2018-07-05T13:59:44.206Z,67.70
2018-07-05T14:02:25.868Z,67.80
2018-07-05T14:05:05.845Z,67.90
2018-07-05T14:07:46.017Z,67.70
2018-07-05T14:10:26.023Z,67.60
2018-07-05T14:13:06.129Z,67.60
2018-07-05T14:15:46.131Z,67.50
2018-07-05T14:18:26.299Z,67.60
2018-07-05T14:21:06.451Z,67.60
2018-07-05T14:23:46.776Z,67.60
2018-07-05T14:26:26.993Z,67.70
2018-07-05T14:31:41.135Z,67.70
2018-07-05T14:34:21.199Z,67.60
2018-07-05T14:37:01.241Z,67.60
2018-07-05T14:39:41.493Z,67.60
2018-07-05T14:42:21.563Z,67.60
2018-07-05T14:45:01.778Z,67.50
2018-07-05T14:47:41.831Z,67.40
2018-07-05T14:50:22.090Z,67.50
2018-07-05T14:53:02.281Z,67.50
2018-07-05T14:55:43.273Z,67.60
2018-07-05T14:58:23.518Z,67.60
2018-07-05T15:03:37.592Z,67.50
2018-07-05T15:06:20.150Z,67.50
2018-07-05T15:09:00.408Z,67.50
2018-07-05T15:11:40.566Z,68.00
2018-07-05T15:14:20.677Z,68.10
2018-07-05T15:17:07.190Z,68.60
2018-07-05T15:20:49.817Z,68.70
2018-07-05T15:23:29.939Z,68.90
2018-07-05T15:26:10.139Z,69.00
2018-07-05T15:28:50.766Z,69.10
2018-07-05T15:31:30.951Z,69.10
2018-07-05T15:34:11.209Z,69.00
2018-07-05T15:36:51.509Z,69.00
2018-07-05T15:39:31.704Z,68.90
2018-07-05T15:42:11.824Z,69.00
2018-07-05T15:44:52.133Z,69.20
2018-07-05T15:47:32.537Z,69.10
2018-07-05T15:50:12.704Z,69.10
2018-07-05T15:52:52.748Z,69.10
2018-07-05T15:59:46.719Z,69.00
2018-07-05T16:02:27.806Z,69.10
2018-07-05T16:05:08.024Z,69.10
2018-07-05T16:14:39.090Z,69.00
2018-07-05T16:17:19.332Z,69.00
2018-07-05T16:19:59.348Z,69.00
2018-07-05T16:22:39.577Z,68.90
2018-07-05T16:25:19.692Z,68.80
2018-07-05T16:28:00.120Z,68.80
2018-07-05T16:30:40.269Z,68.80
2018-07-05T16:33:21.391Z,68.90
2018-07-05T16:36:01.444Z,68.90
2018-07-05T16:42:30.540Z,68.70
2018-07-05T16:45:10.706Z,68.90
2018-07-05T16:47:50.798Z,69.10
2018-07-05T16:50:31.414Z,69.90
2018-07-05T16:53:11.891Z,70.30
2018-07-05T16:55:52.356Z,70.40
2018-07-05T16:58:33.135Z,70.30
2018-07-05T17:01:14.746Z,69.90
2018-07-05T17:03:55.102Z,69.20
2018-07-05T17:06:35.448Z,69.60
2018-07-05T17:09:18.968Z,69.50
2018-07-05T17:12:03.635Z,69.30
2018-07-05T17:14:43.816Z,69.20
2018-07-05T17:17:23.981Z,69.10
2018-07-05T17:22:40.755Z,68.90
2018-07-05T17:25:20.704Z,68.80
2018-07-05T17:28:00.780Z,68.70
2018-07-05T17:30:41.516Z,68.60
2018-07-05T17:33:22.561Z,68.70
2018-07-05T17:36:05.752Z,68.70
2018-07-05T17:38:47.808Z,68.60
2018-07-05T17:41:27.923Z,68.50
2018-07-05T17:44:09.386Z,68.50
2018-07-05T17:46:49.346Z,68.60
2018-07-05T17:49:29.600Z,68.60
2018-07-05T17:52:09.701Z,68.50
2018-07-05T17:54:49.673Z,68.50
2018-07-05T17:57:29.806Z,65.50
2018-07-05T18:00:09.901Z,64.90
2018-07-05T18:02:50.139Z,62.90
2018-07-05T18:05:30.197Z,62.40
2018-07-05T18:08:10.508Z,63.70
2018-07-05T18:10:50.668Z,62.20
2018-07-05T18:13:30.803Z,62.10
2018-07-05T18:16:11.049Z,61.70
2018-07-05T18:18:51.061Z,61.60
2018-07-05T18:21:31.340Z,61.00
2018-07-05T18:24:11.327Z,61.00
2018-07-05T18:26:51.344Z,60.90
2018-07-05T18:29:31.477Z,61.10
2018-07-05T18:32:11.740Z,60.90
2018-07-05T18:34:52.237Z,60.60
2018-07-05T18:37:32.371Z,59.70
2018-07-05T18:40:12.706Z,60.10
2018-07-05T18:42:52.994Z,60.20
2018-07-05T18:45:33.194Z,60.60
2018-07-05T18:48:13.281Z,60.60
2018-07-05T18:50:53.485Z,60.80
2018-07-05T18:53:33.656Z,61.00
2018-07-05T18:56:13.849Z,61.00
2018-07-05T18:58:54.015Z,61.40
2018-07-05T19:01:34.328Z,61.30
2018-07-05T19:04:14.466Z,61.60
2018-07-05T19:06:55.600Z,61.30
2018-07-05T19:09:35.727Z,61.30
2018-07-05T19:12:15.943Z,60.10
2018-07-05T19:14:56.076Z,59.70
2018-07-05T19:17:36.112Z,59.50
2018-07-05T19:20:16.496Z,59.30
2018-07-05T19:22:56.562Z,59.40
2018-07-05T19:28:12.008Z,58.20
2018-07-05T19:30:52.240Z,58.40
2018-07-05T19:33:32.631Z,58.60
2018-07-05T19:36:12.970Z,59.00
2018-07-05T19:38:53.659Z,59.00
2018-07-05T19:41:35.007Z,59.70
2018-07-05T19:44:15.129Z,59.50
2018-07-05T19:46:56.104Z,59.20
2018-07-05T19:49:36.209Z,59.10
2018-07-05T19:52:16.618Z,60.10
2018-07-05T19:54:56.670Z,60.40
2018-07-05T19:57:36.968Z,60.60
2018-07-05T20:00:17.063Z,61.10
2018-07-05T20:02:57.336Z,61.30
2018-07-05T20:05:37.509Z,61.20
2018-07-05T20:08:17.687Z,61.90
2018-07-05T20:11:00.409Z,61.00
2018-07-05T20:13:41.673Z,60.60
2018-07-05T20:16:22.034Z,60.70
2018-07-05T20:19:02.213Z,61.00
2018-07-05T20:21:43.714Z,61.30
2018-07-05T20:24:23.811Z,60.50
2018-07-05T20:27:03.926Z,60.50
2018-07-05T20:29:44.110Z,61.50
2018-07-05T20:32:24.129Z,61.70
2018-07-05T20:35:04.317Z,61.60
2018-07-05T20:37:44.348Z,61.80
2018-07-05T20:40:24.524Z,62.40
2018-07-05T20:43:04.928Z,62.10
2018-07-05T20:45:45.014Z,62.30
2018-07-05T20:48:25.169Z,62.20
2018-07-05T20:51:05.257Z,62.40
2018-07-05T20:53:45.477Z,62.50
2018-07-05T20:56:25.713Z,62.10
2018-07-05T20:59:05.808Z,61.80
2018-07-05T21:01:47.030Z,62.20
2018-07-05T21:04:27.060Z,62.30
2018-07-05T21:07:07.253Z,62.50
2018-07-05T21:09:49.048Z,63.50
2018-07-05T21:12:29.227Z,63.10
2018-07-05T21:15:10.150Z,62.50
2018-07-05T21:17:50.759Z,61.90
2018-07-05T21:20:30.811Z,61.90
2018-07-05T21:23:11.657Z,62.40
2018-07-05T21:25:51.745Z,62.90
2018-07-05T21:28:31.964Z,63.30
2018-07-05T21:31:12.206Z,63.50
2018-07-05T21:33:52.272Z,64.10
2018-07-05T21:36:32.260Z,64.30
2018-07-05T21:39:12.444Z,64.10
2018-07-05T21:41:52.464Z,63.80
2018-07-05T21:44:32.480Z,63.80
2018-07-05T21:49:46.715Z,64.60
2018-07-05T21:52:27.868Z,65.20
2018-07-05T21:55:07.816Z,65.50
2018-07-05T21:57:47.785Z,65.70
2018-07-05T22:00:27.717Z,64.60
2018-07-05T22:03:07.684Z,64.00
2018-07-05T22:05:47.845Z,63.00
2018-07-05T22:08:27.873Z,63.30
2018-07-05T22:11:07.817Z,63.70
2018-07-05T22:13:47.967Z,63.90
2018-07-05T22:16:28.341Z,64.30
2018-07-05T22:19:21.631Z,65.10
2018-07-05T22:22:06.967Z,64.80
2018-07-05T22:24:52.199Z,64.20
2018-07-05T22:27:37.456Z,64.60
2018-07-05T22:30:22.660Z,65.30
2018-07-05T22:33:03.440Z,64.90
2018-07-05T22:35:43.512Z,64.70
2018-07-05T22:38:23.500Z,65.80
2018-07-05T22:41:03.557Z,65.50
2018-07-05T22:43:43.565Z,65.60
2018-07-05T22:46:23.520Z,65.80
2018-07-05T22:49:03.649Z,65.20
2018-07-05T22:51:43.773Z,65.90
2018-07-05T22:54:23.808Z,65.90
2018-07-05T22:57:03.940Z,65.20
2018-07-05T22:59:44.024Z,64.00
2018-07-05T23:02:24.376Z,64.70
2018-07-05T23:05:04.529Z,65.20
2018-07-05T23:07:44.625Z,64.80
2018-07-05T23:10:24.576Z,65.10
2018-07-05T23:13:04.560Z,64.70
2018-07-05T23:15:44.606Z,64.70
2018-07-05T23:18:24.736Z,65.30
2018-07-05T23:21:04.715Z,64.30
2018-07-05T23:23:45.484Z,64.30
2018-07-05T23:26:25.664Z,65.20
2018-07-05T23:29:05.843Z,66.00
2018-07-05T23:31:45.785Z,64.30
2018-07-05T23:34:25.972Z,64.10
2018-07-05T23:37:06.250Z,64.20
2018-07-05T23:39:46.313Z,64.50
2018-07-05T23:42:26.405Z,65.10
2018-07-05T23:45:06.521Z,65.50
2018-07-05T23:47:46.564Z,65.60
2018-07-05T23:50:26.662Z,65.90
2018-07-05T23:53:06.816Z,66.10
2018-07-05T23:55:46.970Z,66.10
2018-07-05T23:58:27.115Z,66.00
